Time;durP1;ratioP1;P1;durP2;ratioP2;P2;SDS_P1;SDS_P2;PMS_P1;PMS_P2;Temp;Humidity;BMP_temperature;BMP_pressure;BME280_temperature;BME280_humidity;BME280_pressure;Samples;Min_cycle;Max_cycle;Signal;HPM_P1;HPM_P2
2024/03/24 00:01:54;;;;;;;;;;;;;;;6.27;61.12;97266.13;5051280;28;20346;-85
2024/03/24 00:04:20;;;;;;;;;;;;;;;6.25;61.02;97265.63;5089055;28;19928;-85
2024/03/24 00:06:47;;;;;;;;;;;;;;;6.38;60.59;97255.16;5049955;28;20498;-84
2024/03/24 00:09:14;;;;;;;;;;;;;;;6.41;61.02;97249.16;5036028;28;19928;-85
2024/03/24 00:11:42;;;;;;;;;;;;;;;6.34;60.99;97246.03;5035166;28;19929;-84
2024/03/24 00:14:09;;;;;;;;;;;;;;;6.24;61.31;97247.88;5043171;28;19932;-85
2024/03/24 00:16:37;;;;;;;;;;;;;;;6.21;61.29;97245.75;5061927;28;20022;-79
2024/03/24 00:19:04;;;;;;;;;;;;;;;6.26;61.51;97248.34;5054344;28;19932;-77
2024/03/24 00:21:30;;;;;;;;;;;;;;;6.30;60.95;97243.97;5057176;28;19923;-78
2024/03/24 00:23:56;;;;;;;;;;;;;;;6.34;60.83;97238.78;5070889;28;19924;-78
2024/03/24 00:26:22;;;;;;;;;;;;;;;6.43;60.86;97233.47;5042774;28;19975;-78
2024/03/24 00:28:50;;;;;;;;;;;;;;;6.38;60.43;97234.34;5046912;28;19928;-78
2024/03/24 00:31:16;;;;;;;;;;;;;;;6.23;60.82;97221.16;5035683;28;20340;-79
2024/03/24 00:33:43;;;;;;;;;;;;;;;6.12;61.08;97223.25;5040211;28;19925;-78
2024/03/24 00:36:08;;;;;;;;;;;;;;;6.03;61.54;97220.47;5071904;28;19954;-75
2024/03/24 00:38:36;;;;;;;;;;;;;;;6.08;61.00;97222.28;5064906;28;19928;-75
2024/03/24 00:41:02;;;;;;;;;;;;;;;6.03;61.43;97219.69;5075195;28;19931;-75
2024/03/24 00:43:29;;;;;;;;;;;;;;;6.06;61.43;97207.47;5037557;28;20315;-77
2024/03/24 00:45:56;;;;;;;;;;;;;;;6.03;61.22;97214.28;5054795;28;19932;-75
2024/03/24 00:48:23;;;;;;;;;;;;;;;6.07;61.10;97219.88;5055699;28;19974;-75
2024/03/24 00:50:49;;;;;;;;;;;;;;;6.03;60.89;97209.69;5056463;28;20275;-75
2024/03/24 00:53:16;;;;;;;;;;;;;;;6.09;61.39;97206.91;5056560;28;20023;-75
2024/03/24 00:55:42;;;;;;;;;;;;;;;6.12;60.69;97201.69;5070377;28;19925;-75
2024/03/24 00:58:09;;;;;;;;;;;;;;;6.12;60.87;97198.19;5057908;28;20280;-75
2024/03/24 01:00:35;;;;;;;;;;;;;;;6.06;61.19;97192.09;5099530;28;19924;-76
2024/03/24 01:03:03;;;;;;;;;;;;;;;6.11;61.15;97186.59;5059409;28;19924;-76
2024/03/24 01:05:29;;;;;;;;;;;;;;;6.13;60.68;97183.63;5072320;28;19931;-75
2024/03/24 01:07:58;;;;;;;;;;;;;;;6.08;61.12;97189.13;5058194;28;20261;-75
2024/03/24 01:10:24;;;;;;;;;;;;;;;6.13;60.61;97176.34;5061663;28;19925;-76
2024/03/24 01:12:51;;;;;;;;;;;;;;;6.19;61.13;97180.53;5068123;28;19928;-75
2024/03/24 01:15:17;;;;;;;;;;;;;;;6.15;60.41;97171.44;5089763;28;20280;-75
2024/03/24 01:17:44;;;;;;;;;;;;;;;6.17;60.49;97163.03;5056473;28;19951;-75
2024/03/24 01:20:13;;;;;;;;;;;;;;;6.26;60.64;97167.44;5047570;28;19931;-75
2024/03/24 01:22:40;;;;;;;;;;;;;;;6.25;60.77;97160.44;5057214;28;20299;-74
2024/03/24 01:25:06;;;;;;;;;;;;;;;6.24;60.16;97164.25;5045155;28;19929;-75
2024/03/24 01:27:33;;;;;;;;;;;;;;;6.17;60.74;97161.13;5092849;28;19964;-82
2024/03/24 01:29:59;;;;;;;;;;;;;;;6.09;60.57;97161.84;5053719;28;19947;-81
2024/03/24 01:32:26;;;;;;;;;;;;;;;5.87;61.69;97156.34;5066205;28;20372;-82
2024/03/24 01:34:51;;;;;;;;;;;;;;;5.93;60.97;97147.88;5091259;28;20026;-83
2024/03/24 01:37:19;;;;;;;;;;;;;;;6.00;61.27;97150.16;5050234;28;20721;-81
2024/03/24 01:39:46;;;;;;;;;;;;;;;5.81;61.41;97128.69;5037698;28;19974;-83
2024/03/24 01:42:13;;;;;;;;;;;;;;;6.00;61.01;97136.69;5066894;28;19970;-82
2024/03/24 01:44:39;;;;;;;;;;;;;;;6.12;60.98;97126.19;5081216;28;19935;-83
2024/03/24 01:47:06;;;;;;;;;;;;;;;6.18;60.53;97114.22;5059780;28;19928;-78
2024/03/24 01:49:32;;;;;;;;;;;;;;;6.33;60.58;97120.34;5061288;28;20007;-78
2024/03/24 01:51:59;;;;;;;;;;;;;;;6.64;59.87;97115.09;5066975;28;19931;-82
2024/03/24 01:54:26;;;;;;;;;;;;;;;6.69;59.32;97104.97;5035258;28;20380;-82
2024/03/24 01:56:53;;;;;;;;;;;;;;;6.73;59.82;97097.88;5049583;28;20384;-82
2024/03/24 01:59:19;;;;;;;;;;;;;;;6.86;59.16;97101.59;5069468;28;20531;-80
2024/03/24 02:01:46;;;;;;;;;;;;;;;6.98;59.10;97093.75;5057443;28;19997;-81
2024/03/24 02:04:12;;;;;;;;;;;;;;;7.11;58.29;97099.41;5073830;28;19928;-81
2024/03/24 02:06:39;;;;;;;;;;;;;;;7.18;58.37;97100.53;5062365;28;19977;-81
2024/03/24 02:09:04;;;;;;;;;;;;;;;7.22;58.13;97096.13;5077440;28;19924;-81
2024/03/24 02:11:33;;;;;;;;;;;;;;;7.47;57.14;97088.47;5040882;28;19928;-81
2024/03/24 02:13:59;;;;;;;;;;;;;;;7.58;57.17;97085.19;5066497;28;19989;-81
2024/03/24 02:16:25;;;;;;;;;;;;;;;7.56;56.97;97084.72;5062771;28;20759;-79
2024/03/24 02:18:51;;;;;;;;;;;;;;;7.55;56.88;97085.00;5073272;28;20276;-79
2024/03/24 02:21:18;;;;;;;;;;;;;;;7.51;56.74;97071.31;5065512;28;19931;-79
2024/03/24 02:23:45;;;;;;;;;;;;;;;7.68;56.64;97062.47;5060088;28;19951;-79
2024/03/24 02:26:11;;;;;;;;;;;;;;;7.64;55.76;97066.13;5060171;28;19983;-77
2024/03/24 02:28:41;;;;;;;;;;;;;;;7.63;56.29;97067.25;5050134;28;19925;-79
2024/03/24 02:31:08;;;;;;;;;;;;;;;7.75;56.44;97067.44;5068196;28;19924;-78
2024/03/24 02:33:34;;;;;;;;;;;;;;;7.65;56.61;97062.31;5053001;28;19948;-78
2024/03/24 02:36:01;;;;;;;;;;;;;;;7.68;55.96;97057.06;5018807;28;20410;-82
2024/03/24 02:38:27;;;;;;;;;;;;;;;7.85;56.16;97054.41;5036559;28;19932;-84
2024/03/24 02:40:56;;;;;;;;;;;;;;;7.62;55.76;97052.94;5038409;28;19972;-82
2024/03/24 02:43:21;;;;;;;;;;;;;;;7.50;56.14;97047.28;5052352;28;19931;-80
2024/03/24 02:45:55;;;;;;;;;;;;;;;7.44;56.45;97045.84;5058833;28;19924;-85
2024/03/24 02:48:25;;;;;;;;;;;;;;;7.60;56.00;97038.91;5054037;28;19950;-81
2024/03/24 02:50:54;;;;;;;;;;;;;;;7.83;55.99;97040.44;5064110;28;19993;-82
2024/03/24 02:53:20;;;;;;;;;;;;;;;7.71;55.74;97034.81;5038834;28;19951;-82
2024/03/24 02:55:47;;;;;;;;;;;;;;;7.68;55.54;97029.25;5039513;28;19929;-83
2024/03/24 02:58:14;;;;;;;;;;;;;;;7.68;55.54;97027.34;5043155;28;19925;-82
2024/03/24 03:00:44;;;;;;;;;;;;;;;7.78;55.66;97027.06;5075329;28;20023;-82
2024/03/24 03:03:10;;;;;;;;;;;;;;;7.62;56.30;97020.50;5054391;28;19924;-82
2024/03/24 03:05:37;;;;;;;;;;;;;;;7.60;56.67;97018.06;5069930;28;19956;-82
2024/03/24 03:08:03;;;;;;;;;;;;;;;7.75;56.99;97013.34;5055444;28;20273;-81
2024/03/24 03:10:31;;;;;;;;;;;;;;;7.95;57.51;97011.97;5060326;28;19931;-81
2024/03/24 03:12:59;;;;;;;;;;;;;;;7.87;57.18;97011.63;5053194;28;19978;-80
2024/03/24 03:15:28;;;;;;;;;;;;;;;8.01;57.51;97008.00;5068757;28;19932;-81
2024/03/24 03:17:53;;;;;;;;;;;;;;;7.70;58.24;97011.59;5053984;28;19931;-81
2024/03/24 03:20:20;;;;;;;;;;;;;;;7.33;59.28;97013.69;5063902;28;19924;-82
2024/03/24 03:22:46;;;;;;;;;;;;;;;7.76;59.13;97009.53;5040431;28;19932;-82
2024/03/24 03:25:16;;;;;;;;;;;;;;;7.76;59.34;97014.94;5048891;28;19931;-81
2024/03/24 03:27:44;;;;;;;;;;;;;;;7.90;59.65;97009.41;5062438;28;20523;-82
2024/03/24 03:30:11;;;;;;;;;;;;;;;7.60;60.77;97006.47;5055298;28;19932;-82
2024/03/24 03:32:38;;;;;;;;;;;;;;;7.59;60.65;97018.41;5050389;28;19924;-81
2024/03/24 03:35:06;;;;;;;;;;;;;;;7.60;61.65;97009.97;5036436;28;19925;-81
2024/03/24 03:37:33;;;;;;;;;;;;;;;7.24;62.36;97003.94;5074499;28;20265;-82
2024/03/24 03:40:01;;;;;;;;;;;;;;;7.29;61.54;97017.31;5052274;28;19931;-83
2024/03/24 03:42:26;;;;;;;;;;;;;;;7.27;61.55;97006.84;5037038;28;19925;-82
2024/03/24 03:44:53;;;;;;;;;;;;;;;7.44;61.96;97011.50;5043707;28;19925;-82
2024/03/24 03:47:22;;;;;;;;;;;;;;;7.37;61.15;97005.78;5045991;28;19947;-82
2024/03/24 03:49:51;;;;;;;;;;;;;;;7.54;61.21;96997.72;5052725;28;19924;-82
2024/03/24 03:52:17;;;;;;;;;;;;;;;7.51;60.48;97001.06;5048768;28;19925;-84
2024/03/24 03:54:44;;;;;;;;;;;;;;;7.32;61.15;97004.00;5034753;28;20445;-82
2024/03/24 03:57:09;;;;;;;;;;;;;;;7.30;60.92;96998.13;5043209;28;19928;-80
2024/03/24 03:59:36;;;;;;;;;;;;;;;7.17;62.03;97003.63;5028273;28;20382;-81
2024/03/24 04:02:02;;;;;;;;;;;;;;;7.05;61.33;96996.09;5046675;28;19928;-80
2024/03/24 04:04:30;;;;;;;;;;;;;;;7.11;61.67;96996.75;5066260;28;19970;-81
2024/03/24 04:06:57;;;;;;;;;;;;;;;7.11;61.73;96992.16;5040266;28;19931;-79
2024/03/24 04:09:24;;;;;;;;;;;;;;;7.45;61.04;96996.09;5053915;28;19925;-80
2024/03/24 04:11:50;;;;;;;;;;;;;;;7.20;60.45;96990.28;5052213;28;19925;-81
2024/03/24 04:14:17;;;;;;;;;;;;;;;7.42;60.88;96983.22;5054139;28;19925;-81
2024/03/24 04:16:43;;;;;;;;;;;;;;;7.37;60.37;96972.56;5067470;28;20152;-81
2024/03/24 04:19:10;;;;;;;;;;;;;;;7.35;59.66;96968.25;5049141;28;19932;-80
2024/03/24 04:21:36;;;;;;;;;;;;;;;7.37;59.71;96977.94;5073632;28;19925;-82
2024/03/24 04:24:05;;;;;;;;;;;;;;;7.39;60.14;96973.03;5051095;28;20364;-80
2024/03/24 04:26:31;;;;;;;;;;;;;;;7.33;59.97;96973.16;5060223;28;19953;-82
2024/03/24 04:28:58;;;;;;;;;;;;;;;7.26;60.08;96982.84;5063454;28;19925;-82
2024/03/24 04:31:24;;;;;;;;;;;;;;;7.42;60.38;96975.09;5065689;28;19930;-80
2024/03/24 04:33:51;;;;;;;;;;;;;;;7.31;59.22;96980.78;5073946;28;19924;-83
2024/03/24 04:36:17;;;;;;;;;;;;;;;7.23;59.62;96981.53;5053308;28;19924;-78
2024/03/24 04:38:44;;;;;;;;;;;;;;;7.27;59.60;96979.81;5060237;28;20379;-82
2024/03/24 04:41:15;;;;;;;;;;;;;;;7.07;60.49;96978.47;5058676;28;19977;-81
2024/03/24 04:43:41;;;;;;;;;;;;;;;7.27;60.33;96977.13;5071787;28;19925;-80
2024/03/24 04:46:08;;;;;;;;;;;;;;;7.21;59.88;96978.38;5068491;28;20019;-82
2024/03/24 04:48:34;;;;;;;;;;;;;;;7.01;60.51;96973.50;5063230;28;19933;-80
2024/03/24 04:51:01;;;;;;;;;;;;;;;7.16;60.19;96977.72;5085953;28;19935;-81
2024/03/24 04:53:28;;;;;;;;;;;;;;;7.33;60.12;96981.28;5090186;28;19932;-81
2024/03/24 04:55:54;;;;;;;;;;;;;;;7.22;60.24;96985.38;5035493;28;19989;-85
2024/03/24 04:58:23;;;;;;;;;;;;;;;7.16;60.31;96986.63;5029607;28;19928;-82
2024/03/24 05:00:49;;;;;;;;;;;;;;;7.19;60.17;96977.06;5049833;28;19924;-81
2024/03/24 05:03:16;;;;;;;;;;;;;;;6.99;60.23;96981.94;5063908;28;19931;-82
2024/03/24 05:05:45;;;;;;;;;;;;;;;7.14;60.44;96988.00;5071386;28;19924;-82
2024/03/24 05:08:16;;;;;;;;;;;;;;;7.23;60.35;96991.56;5055156;28;20294;-82
2024/03/24 05:10:42;;;;;;;;;;;;;;;7.12;60.64;96991.03;5054142;28;19935;-80
2024/03/24 05:13:12;;;;;;;;;;;;;;;7.13;60.20;96998.03;5046055;28;19968;-82
2024/03/24 05:15:39;;;;;;;;;;;;;;;7.22;60.24;96996.16;5048200;28;19924;-82
2024/03/24 05:18:08;;;;;;;;;;;;;;;7.18;60.14;96992.50;5031210;28;19977;-83
2024/03/24 05:20:34;;;;;;;;;;;;;;;7.22;59.96;96993.47;5065919;28;19935;-83
2024/03/24 05:23:06;;;;;;;;;;;;;;;7.16;60.31;96997.41;5046581;28;19925;-83
2024/03/24 05:25:33;;;;;;;;;;;;;;;7.15;60.44;96995.81;5038644;28;20402;-85
2024/03/24 05:28:00;;;;;;;;;;;;;;;7.07;60.73;97000.06;5061080;28;19925;-83
2024/03/24 05:30:26;;;;;;;;;;;;;;;6.94;60.92;97000.19;5054662;28;19915;-84
2024/03/24 05:32:54;;;;;;;;;;;;;;;6.86;61.06;96990.09;5054962;28;20327;-84
2024/03/24 05:35:20;;;;;;;;;;;;;;;6.88;61.20;97004.13;5041078;28;19929;-84
2024/03/24 05:37:46;;;;;;;;;;;;;;;6.80;61.52;97003.72;5054887;28;19932;-83
2024/03/24 05:40:13;;;;;;;;;;;;;;;6.92;61.70;96997.75;5042724;28;20269;-83
2024/03/24 05:42:40;;;;;;;;;;;;;;;7.04;61.52;96995.31;5036279;28;20342;-83
2024/03/24 05:45:07;;;;;;;;;;;;;;;7.03;61.52;96991.00;5054591;28;19936;-84
2024/03/24 05:47:33;;;;;;;;;;;;;;;7.31;61.11;96999.72;5046279;28;19928;-83
2024/03/24 05:50:02;;;;;;;;;;;;;;;7.41;60.21;97003.25;5047048;28;20348;-83
2024/03/24 05:52:28;;;;;;;;;;;;;;;7.56;59.32;96998.22;5057847;28;19924;-83
2024/03/24 05:54:55;;;;;;;;;;;;;;;7.49;59.22;97005.16;5043688;28;20002;-84
2024/03/24 05:57:21;;;;;;;;;;;;;;;7.25;59.55;97003.66;5044836;28;19928;-84
2024/03/24 05:59:47;;;;;;;;;;;;;;;7.25;59.61;96997.47;5074564;28;20352;-83
2024/03/24 06:02:13;;;;;;;;;;;;;;;7.11;59.61;97000.25;5046211;28;20383;-84
2024/03/24 06:04:40;;;;;;;;;;;;;;;7.29;59.67;96999.22;5045721;28;19925;-84
2024/03/24 06:07:09;;;;;;;;;;;;;;;7.31;59.67;97002.41;5046663;28;20257;-85
2024/03/24 06:09:36;;;;;;;;;;;;;;;7.31;59.27;96998.91;5052004;28;19931;-77
2024/03/24 06:12:03;;;;;;;;;;;;;;;7.30;59.73;96998.13;5035349;28;20138;-77
2024/03/24 06:14:31;;;;;;;;;;;;;;;7.36;59.42;96996.06;5078968;28;19978;-77
2024/03/24 06:16:57;;;;;;;;;;;;;;;7.35;59.81;96994.50;5061598;28;19989;-77
2024/03/24 06:19:26;;;;;;;;;;;;;;;7.31;59.73;96990.81;5054238;28;19956;-76
2024/03/24 06:21:53;;;;;;;;;;;;;;;7.19;59.99;96991.41;5065648;28;19925;-77
2024/03/24 06:24:26;;;;;;;;;;;;;;;7.35;59.74;96992.56;5089500;28;19983;-77
2024/03/24 06:26:52;;;;;;;;;;;;;;;7.47;59.08;96989.28;5054367;28;20011;-80
2024/03/24 06:29:21;;;;;;;;;;;;;;;7.28;59.69;96983.31;5056253;28;19924;-79
2024/03/24 06:31:46;;;;;;;;;;;;;;;7.29;59.31;96988.41;5055359;28;20069;-80
2024/03/24 06:34:13;;;;;;;;;;;;;;;7.45;58.92;96994.19;5045919;28;19979;-80
2024/03/24 06:36:40;;;;;;;;;;;;;;;7.54;58.10;96988.81;5047769;28;19932;-82
2024/03/24 06:39:06;;;;;;;;;;;;;;;7.55;57.98;96990.41;5047550;28;19925;-82
2024/03/24 06:41:38;;;;;;;;;;;;;;;7.49;58.16;96994.34;5056855;28;19931;-78
2024/03/24 06:44:11;;;;;;;;;;;;;;;7.51;58.19;96986.72;5057028;28;19931;-81
2024/03/24 06:46:37;;;;;;;;;;;;;;;7.57;57.95;96993.59;5057173;28;19924;-78
2024/03/24 06:49:04;;;;;;;;;;;;;;;7.47;57.61;96985.78;5066523;28;19935;-82
2024/03/24 06:51:30;;;;;;;;;;;;;;;7.35;58.46;96989.09;5054240;28;19924;-82
2024/03/24 06:53:57;;;;;;;;;;;;;;;7.54;57.91;96986.91;5045190;28;19932;-79
2024/03/24 06:56:23;;;;;;;;;;;;;;;7.72;58.15;96990.44;5065856;28;19934;-77
2024/03/24 06:58:51;;;;;;;;;;;;;;;7.82;57.27;96984.72;5072608;28;19971;-79
2024/03/24 07:01:18;;;;;;;;;;;;;;;7.77;57.51;96990.28;5055216;28;19924;-76
2024/03/24 07:03:44;;;;;;;;;;;;;;;7.67;57.21;96996.00;5050392;28;19931;-76
2024/03/24 07:06:12;;;;;;;;;;;;;;;7.90;57.68;96993.19;5040089;28;19947;-78
2024/03/24 07:08:38;;;;;;;;;;;;;;;7.73;57.14;96993.97;5068664;28;20369;-75
2024/03/24 07:11:05;;;;;;;;;;;;;;;7.91;56.85;96994.78;5067553;28;20074;-85
2024/03/24 07:13:31;;;;;;;;;;;;;;;8.04;56.78;96999.22;5066582;28;19929;-74
2024/03/24 07:15:59;;;;;;;;;;;;;;;7.91;56.34;96990.16;5053207;28;20367;-85
2024/03/24 07:18:26;;;;;;;;;;;;;;;7.99;56.80;96996.69;5056380;28;19924;-85
2024/03/24 07:20:57;;;;;;;;;;;;;;;7.95;56.50;96996.53;5049406;28;19968;-93
2024/03/24 07:23:25;;;;;;;;;;;;;;;7.77;56.29;97003.81;5035414;28;19932;-85
2024/03/24 07:25:51;;;;;;;;;;;;;;;7.70;56.15;97002.69;5025336;28;19983;-86
2024/03/24 07:28:19;;;;;;;;;;;;;;;7.65;57.05;97000.13;5042985;28;19924;-90
2024/03/24 07:30:46;;;;;;;;;;;;;;;7.43;57.35;97001.00;5040565;28;19933;-86
2024/03/24 07:33:15;;;;;;;;;;;;;;;7.17;57.43;96993.59;5039567;28;19930;-86
2024/03/24 07:35:41;;;;;;;;;;;;;;;7.16;58.08;97000.13;5041412;28;20027;-88
2024/03/24 07:38:08;;;;;;;;;;;;;;;7.18;57.70;97000.59;5049327;28;19959;-88
2024/03/24 07:40:34;;;;;;;;;;;;;;;7.53;57.66;97006.13;5054545;28;19924;-89
2024/03/24 07:43:01;;;;;;;;;;;;;;;7.63;57.48;96994.25;5066794;28;20654;-86
2024/03/24 07:45:30;;;;;;;;;;;;;;;7.65;55.97;96998.22;5053683;28;19935;-87
2024/03/24 07:47:57;;;;;;;;;;;;;;;7.83;56.25;96999.88;5055036;28;19931;-85
2024/03/24 07:50:25;;;;;;;;;;;;;;;7.81;56.67;97002.06;5040606;28;19932;-92
2024/03/24 07:52:52;;;;;;;;;;;;;;;7.81;56.36;97012.09;5053478;28;19929;-83
2024/03/24 07:55:19;;;;;;;;;;;;;;;7.68;56.49;96996.81;5070738;28;20276;-85
2024/03/24 07:57:45;;;;;;;;;;;;;;;7.75;55.94;96997.94;5037992;28;19928;-85
2024/03/24 08:00:12;;;;;;;;;;;;;;;7.97;55.79;96993.50;5032588;28;19924;-86
2024/03/24 08:02:42;;;;;;;;;;;;;;;7.99;54.61;96999.38;5032185;28;19925;-79
2024/03/24 08:05:08;;;;;;;;;;;;;;;8.09;54.28;97005.28;5049082;28;19931;-90
2024/03/24 08:07:36;;;;;;;;;;;;;;;8.04;52.88;97010.88;5048613;28;20351;-80
2024/03/24 08:10:04;;;;;;;;;;;;;;;7.81;53.73;97002.06;5054096;28;20662;-79
2024/03/24 08:12:30;;;;;;;;;;;;;;;7.85;52.38;97003.03;5071185;28;19924;-84
2024/03/24 08:14:56;;;;;;;;;;;;;;;7.78;52.51;97002.72;5054450;28;19924;-82
2024/03/24 08:17:23;;;;;;;;;;;;;;;7.73;52.45;96997.47;5047141;28;19925;-78
2024/03/24 08:19:53;;;;;;;;;;;;;;;7.61;51.39;97003.44;5040853;28;20688;-81
2024/03/24 08:22:20;;;;;;;;;;;;;;;7.67;51.38;96989.78;5042128;28;19932;-79
2024/03/24 08:24:47;;;;;;;;;;;;;;;7.59;50.75;96989.47;5063737;28;19925;-78
2024/03/24 08:27:14;;;;;;;;;;;;;;;7.72;50.77;96992.34;5063023;28;19929;-82
2024/03/24 08:29:45;;;;;;;;;;;;;;;7.77;50.37;96987.56;5036833;28;19933;-87
2024/03/24 08:32:13;;;;;;;;;;;;;;;7.69;50.68;96999.19;5049952;28;19925;-87
2024/03/24 08:34:39;;;;;;;;;;;;;;;7.84;49.65;97006.84;5043713;28;20372;-84
2024/03/24 08:37:06;;;;;;;;;;;;;;;7.72;50.08;96992.34;5048833;28;19936;-83
2024/03/24 08:39:31;;;;;;;;;;;;;;;7.48;49.64;97006.28;5051206;28;19924;-82
2024/03/24 08:42:00;;;;;;;;;;;;;;;7.53;50.66;97006.94;5087358;28;19932;-82
2024/03/24 08:44:26;;;;;;;;;;;;;;;7.58;50.28;96997.88;5037858;28;19974;-82
2024/03/24 08:46:53;;;;;;;;;;;;;;;7.50;50.22;96991.34;5044669;28;19924;-81
2024/03/24 08:49:19;;;;;;;;;;;;;;;7.67;50.20;96990.59;5047934;28;19925;-81
2024/03/24 08:51:49;;;;;;;;;;;;;;;7.66;50.05;96991.69;5038166;28;19935;-82
2024/03/24 08:54:15;;;;;;;;;;;;;;;7.55;50.63;96998.50;5062310;28;20383;-81
2024/03/24 08:56:42;;;;;;;;;;;;;;;7.67;50.27;96993.31;5054208;28;19960;-84
2024/03/24 08:59:09;;;;;;;;;;;;;;;7.71;49.51;97002.38;5080961;28;20550;-81
2024/03/24 09:01:36;;;;;;;;;;;;;;;7.56;49.98;96990.09;5033389;28;20268;-81
2024/03/24 09:04:02;;;;;;;;;;;;;;;7.57;50.00;96991.69;5087715;28;19925;-80
2024/03/24 09:06:29;;;;;;;;;;;;;;;7.61;50.78;96991.84;5045171;28;20261;-82
2024/03/24 09:08:56;;;;;;;;;;;;;;;7.54;50.00;96991.50;5046176;28;20391;-83
2024/03/24 09:11:23;;;;;;;;;;;;;;;7.60;51.21;96995.66;5040152;28;19931;-83
2024/03/24 09:13:49;;;;;;;;;;;;;;;7.54;50.49;96994.22;5037758;28;19925;-81
2024/03/24 09:16:17;;;;;;;;;;;;;;;7.69;51.12;96993.78;5043340;28;19932;-79
2024/03/24 09:18:45;;;;;;;;;;;;;;;7.78;50.63;96985.69;5056186;28;19924;-81
2024/03/24 09:21:12;;;;;;;;;;;;;;;7.54;50.38;96989.59;5039437;28;19924;-82
2024/03/24 09:23:38;;;;;;;;;;;;;;;7.50;51.05;96985.13;5056885;28;19924;-83
2024/03/24 09:26:05;;;;;;;;;;;;;;;7.44;50.75;96981.00;5040509;28;19931;-79
2024/03/24 09:28:31;;;;;;;;;;;;;;;7.56;51.05;96978.47;5038543;28;19924;-80
2024/03/24 09:30:58;;;;;;;;;;;;;;;7.54;50.76;96984.19;5035066;28;20019;-79
2024/03/24 09:33:25;;;;;;;;;;;;;;;7.51;51.26;96979.44;5042685;28;19929;-79
2024/03/24 09:35:59;;;;;;;;;;;;;;;7.59;51.49;96983.25;5024239;28;19924;-80
2024/03/24 09:38:27;;;;;;;;;;;;;;;7.71;51.68;96986.13;5051864;28;19925;-75
2024/03/24 09:40:54;;;;;;;;;;;;;;;7.77;51.75;96989.50;5036051;28;19924;-75
2024/03/24 09:43:20;;;;;;;;;;;;;;;7.84;51.65;96982.53;5024884;28;19925;-75
2024/03/24 09:45:47;;;;;;;;;;;;;;;7.78;52.41;97005.41;5021907;28;19925;-75
2024/03/24 09:48:14;;;;;;;;;;;;;;;7.77;53.33;96990.28;5056906;28;19928;-86
2024/03/24 09:50:42;;;;;;;;;;;;;;;7.68;53.61;97003.00;5035420;28;19929;-75
2024/03/24 09:53:08;;;;;;;;;;;;;;;7.49;54.10;96995.16;5020096;28;19953;-75
2024/03/24 09:55:35;;;;;;;;;;;;;;;7.52;54.38;96991.03;5053822;28;19974;-76
2024/03/24 09:58:01;;;;;;;;;;;;;;;7.47;54.44;96996.59;5036284;28;19925;-74
2024/03/24 10:00:28;;;;;;;;;;;;;;;7.27;54.63;97000.63;5055181;28;19925;-75
2024/03/24 10:02:54;;;;;;;;;;;;;;;7.27;55.40;97006.84;5019322;28;19929;-74
2024/03/24 10:05:24;;;;;;;;;;;;;;;7.32;54.50;96987.78;5033539;28;19928;-74
2024/03/24 10:07:53;;;;;;;;;;;;;;;7.34;54.99;96990.16;5020065;28;19925;-75
2024/03/24 10:10:20;;;;;;;;;;;;;;;7.48;54.09;96992.78;5036861;28;19925;-75
2024/03/24 10:12:51;;;;;;;;;;;;;;;7.39;54.25;96992.72;5040076;28;19959;-76
2024/03/24 10:15:18;;;;;;;;;;;;;;;7.40;53.65;96990.81;5021825;28;19970;-75
2024/03/24 10:17:48;;;;;;;;;;;;;;;7.38;54.89;96990.34;5050213;28;20383;-75
2024/03/24 10:20:13;;;;;;;;;;;;;;;7.45;54.70;96979.88;5026372;28;19954;-76
2024/03/24 10:22:40;;;;;;;;;;;;;;;7.53;53.85;96981.81;5054223;28;19929;-76
2024/03/24 10:25:11;;;;;;;;;;;;;;;7.55;53.66;96987.69;5048166;28;19932;-75
2024/03/24 10:27:38;;;;;;;;;;;;;;;7.64;54.03;96980.41;5034264;28;19924;-78
2024/03/24 10:30:05;;;;;;;;;;;;;;;7.70;54.03;96981.84;5034921;28;19925;-77
2024/03/24 10:32:31;;;;;;;;;;;;;;;7.65;54.63;96979.28;5022301;28;20273;-78
2024/03/24 10:35:01;;;;;;;;;;;;;;;7.70;55.12;96989.97;5034629;28;19960;-77
2024/03/24 10:37:28;;;;;;;;;;;;;;;7.70;54.91;96971.03;5035771;28;20077;-78
2024/03/24 10:39:57;;;;;;;;;;;;;;;7.79;55.26;96982.66;5039857;28;20019;-76
2024/03/24 10:42:28;;;;;;;;;;;;;;;7.71;55.14;96986.13;5041673;28;19924;-78
2024/03/24 10:44:57;;;;;;;;;;;;;;;7.79;55.29;96977.25;5034958;28;19933;-77
2024/03/24 10:47:24;;;;;;;;;;;;;;;7.76;55.12;96980.59;5056100;28;20272;-93
2024/03/24 10:49:50;;;;;;;;;;;;;;;7.66;54.76;96970.06;5045881;28;19928;-94
2024/03/24 10:52:16;;;;;;;;;;;;;;;7.72;55.09;96974.22;5057230;28;19948;-87
2024/03/24 10:54:43;;;;;;;;;;;;;;;7.74;55.06;96974.72;5041326;28;20431;-86
2024/03/24 10:57:12;;;;;;;;;;;;;;;7.88;53.79;96964.56;5064038;28;19977;-81
2024/03/24 10:59:41;;;;;;;;;;;;;;;7.88;54.35;96969.97;5072715;28;19969;-88
2024/03/24 11:02:13;;;;;;;;;;;;;;;7.81;53.78;96963.41;5061371;28;19924;-89
2024/03/24 11:04:40;;;;;;;;;;;;;;;7.81;53.63;96975.03;5042157;28;19924;-93
2024/03/24 11:07:06;;;;;;;;;;;;;;;7.82;53.93;96965.00;5033656;28;19924;-93
2024/03/24 11:09:33;;;;;;;;;;;;;;;7.90;53.51;96955.31;5020844;28;19947;-93
2024/03/24 11:11:59;;;;;;;;;;;;;;;7.96;53.64;96964.88;5041123;28;19990;-84
2024/03/24 11:14:26;;;;;;;;;;;;;;;7.88;53.90;96967.25;5073229;28;20322;-92
2024/03/24 11:16:54;;;;;;;;;;;;;;;7.86;54.45;96966.75;5057110;28;19925;-94
2024/03/24 11:19:26;;;;;;;;;;;;;;;7.83;54.87;96983.63;5054953;28;19924;-92
2024/03/24 11:21:52;;;;;;;;;;;;;;;7.86;55.14;96974.88;5040244;28;19936;-85
2024/03/24 11:24:29;;;;;;;;;;;;;;;7.86;55.62;96983.00;5053577;28;19932;-86
2024/03/24 11:26:55;;;;;;;;;;;;;;;7.84;56.33;96968.22;5039946;28;19924;-84
2024/03/24 11:29:41;;;;;;;;;;;;;;;7.89;57.48;96970.75;5036129;28;20085;-96
2024/03/24 11:32:10;;;;;;;;;;;;;;;7.75;58.48;96970.88;5044315;28;19969;-96
2024/03/24 11:34:42;;;;;;;;;;;;;;;7.78;58.78;96956.75;5057418;28;19946;-96
2024/03/24 11:37:08;;;;;;;;;;;;;;;8.01;58.49;96975.53;5020382;28;19935;-94
2024/03/24 11:39:38;;;;;;;;;;;;;;;7.83;58.90;96966.63;5045819;28;19963;-94
2024/03/24 11:42:06;;;;;;;;;;;;;;;7.87;58.99;96968.34;5031873;28;20010;-95
2024/03/24 11:44:38;;;;;;;;;;;;;;;7.83;59.36;96962.00;5047101;28;20304;-95
2024/03/24 11:47:04;;;;;;;;;;;;;;;7.84;59.92;96960.88;5058497;28;19971;-96
2024/03/24 11:49:36;;;;;;;;;;;;;;;7.76;60.32;96966.28;5040658;28;19925;-96
2024/03/24 11:52:02;;;;;;;;;;;;;;;7.85;59.94;96970.59;5035123;28;19924;-96
2024/03/24 11:54:30;;;;;;;;;;;;;;;7.85;60.20;96957.06;5021478;28;19950;-95
2024/03/24 11:56:56;;;;;;;;;;;;;;;7.95;60.73;96961.38;5031485;28;19924;-94
2024/03/24 11:59:23;;;;;;;;;;;;;;;7.92;61.29;96969.31;5025620;28;19931;-93
2024/03/24 12:01:49;;;;;;;;;;;;;;;7.88;60.45;96942.94;5069394;28;20395;-94
2024/03/24 12:04:16;;;;;;;;;;;;;;;7.81;60.82;96948.00;5051504;28;19924;-93
2024/03/24 12:06:45;;;;;;;;;;;;;;;7.70;62.30;96935.88;5040581;28;19931;-80
2024/03/24 12:09:12;;;;;;;;;;;;;;;7.63;62.16;96940.97;5048794;28;19940;-91
2024/03/24 12:11:38;;;;;;;;;;;;;;;7.73;62.32;96946.09;5078484;28;19925;-88
2024/03/24 12:14:07;;;;;;;;;;;;;;;7.71;62.53;96948.28;5038695;28;19935;-90
2024/03/24 12:16:33;;;;;;;;;;;;;;;7.92;61.51;96942.28;5075212;28;20039;-92
2024/03/24 12:19:00;;;;;;;;;;;;;;;8.06;61.70;96932.09;5044281;28;19932;-91
2024/03/24 12:21:25;;;;;;;;;;;;;;;8.19;61.05;96928.44;5029754;28;19929;-96
2024/03/24 12:23:54;;;;;;;;;;;;;;;8.13;60.72;96927.00;5060541;28;19931;-94
2024/03/24 12:26:19;;;;;;;;;;;;;;;8.46;59.62;96918.38;5038984;28;19931;-94
2024/03/24 12:28:52;;;;;;;;;;;;;;;8.43;59.14;96916.34;5053416;28;19924;-92
2024/03/24 12:31:18;;;;;;;;;;;;;;;8.44;58.88;96915.22;5035762;28;19962;-94
2024/03/24 12:33:45;;;;;;;;;;;;;;;8.33;59.13;96902.00;5064641;28;19975;-94
2024/03/24 12:36:11;;;;;;;;;;;;;;;8.56;59.19;96905.31;5085890;28;19932;-94
2024/03/24 12:38:38;;;;;;;;;;;;;;;8.64;58.17;96903.72;5072185;28;19925;-93
2024/03/24 12:41:05;;;;;;;;;;;;;;;8.65;58.42;96905.31;5040435;28;20022;-94
2024/03/24 12:43:32;;;;;;;;;;;;;;;8.55;58.82;96911.84;5042480;28;19931;-94
2024/03/24 12:45:59;;;;;;;;;;;;;;;8.30;59.54;96913.44;5065088;28;20482;-95
2024/03/24 12:48:28;;;;;;;;;;;;;;;8.17;59.52;96913.63;5049823;28;19924;-94
2024/03/24 12:50:55;;;;;;;;;;;;;;;8.13;59.98;96908.06;5073055;28;19928;-95
2024/03/24 12:53:25;;;;;;;;;;;;;;;8.17;59.81;96900.91;5058628;28;19924;-94
2024/03/24 12:55:52;;;;;;;;;;;;;;;8.21;59.81;96911.91;5052135;28;19955;-95
2024/03/24 12:58:21;;;;;;;;;;;;;;;8.18;59.95;96904.41;5038321;28;19928;-95